ASIAQ
Weather Now
GREENLAND SURVEY
Sorting:
| Location |
Updated [WGT/WGST] |
Temperature [°C] |
Wind [m/s] |
Air pressure [hPa] |
Relative humidity [%] |
Precipitation [mm] |
| Present | Wind chill | Speed | Max |
| Qaanaaq | 04.05 10:00 | -8,1 | n/a | 0,9 ⇓ | 1,1 | 1032 | 46 | 0,0 |
| Kitsissut | 04.05 10:00 | -8,8 | -17,9 | 8,2 ⇘ | 10,3 | 1033 | 83 | n/a |
| Kitsissorsuit | 04.05 09:00 | -16,3 | n/a | n/a | n/a | 1028 | 85 | n/a |
| Upernavik | 04.05 10:00 | -12,3 | -15,8 | 1,5 ⇙ | 2,2 | 1016 | 75 | 0,0 |
| Qaarsut | 04.05 10:00 | n/a | n/a | 5,7 ⇐ | n/a | 1020 | n/a | n/a |
| Nuussuaq | 04.05 09:00 | -8,0 | -14,2 | 4,1 ⇐ | 6,2 | 1027 | 50 | n/a |
| Qeqertarsuaq | 04.05 10:00 | -6,6 | -13,6 | 5,7 ⇙ | 7,6 | 1028 | 56 | 0,0 |
| Ilulissat | 04.05 10:00 | -8,4 | -11,4 | 1,5 ⇖ | 4,0 | 1026 | 41 | 0,0 |
| Qasigiannguit | 04.05 10:00 | -7,6 | -14,5 | 5,1 ⇙ | 8,0 | 1026 | 50 | 0,0 |
| Aasiaat | 04.05 10:00 | -7,9 | -17,0 | 8,8 ⇙ | 12,6 | 1023 | 60 | 0,0 |
| Kangerlussuaq | 04.05 10:00 | -4,8 | -10,3 | 4,1 ⇐ | 5,4 | 1018 | 47 | n/a |
| Sisimiut | 04.05 10:00 | -1,7 | -6,5 | 4,1 ⇐ | n/a | 1021 | 32 | 0,0 |
| Maniitsoq | 04.05 10:00 | 1,9 | n/a | 1,0 ⇒ | 1,2 | 1015 | 85 | 0,0 |
| Sioralik | 04.05 09:00 | 1,3 | n/a | n/a | n/a | 1017 | 88 | n/a |
| Niaqornaa | n/a | n/a | n/a | n/a | n/a | n/a | n/a | n/a |
| Qeqertannguaq | 04.05 10:00 | 2,3 | -0,4 | 2,6 ⇖ | 3,7 | n/a | 99 | n/a |
| Kapisillit | 04.05 10:00 | 2,1 | -1,6 | 3,9 ⇐ | 6,6 | 1009 | 100 | 0,0 |
| Kuanninnguit | n/a | n/a | n/a | n/a | n/a | n/a | n/a | n/a |
| Nuuk City | 04.05 10:00 | 2,1 | -1,6 | 3,9 ⇙ | 7,1 | 1007 | 100 | 0,0 |
| Ukiiviit | 04.05 09:00 | 2,1 | -1,8 | 4,1 ⇐ | 4,6 | 1015 | 100 | n/a |
| Paamiut | 04.05 10:00 | 4,7 | n/a | 0,0 ⇓ | 0,0 | 1012 | 100 | 0,6 |
| Narsarsuaq | 04.05 10:00 | 6,3 | 5,4 | 1,5 ⇒ | n/a | 1015 | 73 | n/a |
| Narsaq | 04.05 10:00 | 3,1 | n/a | 1,0 ⇒ | 2,7 | 1016 | 93 | 0,0 |
| Nunarsuit | 04.05 09:00 | 3,9 | -1,0 | 7,2 ⇐ | 10,8 | 1014 | 98 | n/a |
| Upernaviarsuk | 04.05 10:00 | 3,3 | n/a | 0,7 ⇓ | 2,0 | 1018 | 100 | n/a |
| Qaqortoq | 04.05 10:00 | 4,9 | 3,3 | 1,9 ⇐ | 3,7 | 1012 | 82 | 0,0 |
| Angisoq | 04.05 09:00 | 2,4 | -1,4 | 4,1 ⇙ | 5,1 | 1017 | 100 | n/a |
| Prins Christian Sund | 04.05 09:00 | -2,3 | n/a | 1,0 ⇐ | 1,5 | 1008 | 99 | n/a |
| Nanortalik | 04.05 10:00 | 5,1 | 2,7 | 2,9 ⇓ | 4,7 | 1018 | 86 | n/a |
| Ikermiuarsuk | 04.05 09:00 | -0,6 | -9,7 | 17,0 ⇓ | 19,6 | 1015 | 100 | n/a |
| Ikermit | 04.05 09:00 | -0,2 | -5,8 | 6,2 ⇙ | 7,2 | 1012 | 48 | n/a |
| Kulusuk | 04.05 10:00 | -2,1 | -10,1 | 11,0 ⇐ | 13,1 | 1019 | 61 | n/a |
| Tasiilaq | 04.05 10:00 | n/a | n/a | n/a | 6,1 | n/a | n/a | n/a |
| Aputiteeq | 04.05 09:00 | -3,5 | -7,3 | 2,6 ⇙ | 6,2 | 1024 | 62 | n/a |
| Ittoqqortoormiit | 04.05 10:00 | -2,3 | -5,4 | 2,2 ⇐ | 4,8 | 1017 | 53 | n/a |
| Nerlerit Inaat | 04.05 10:00 | -1,5 | -8,0 | 7,0 ⇓ | 9,0 | 1025 | 53 | n/a |
| Daneborg | 04.05 10:00 | -3,4 | -12,1 | 12,0 ⇓ | 15,0 | 1023 | 66 | n/a |
| Zackenberg | 03.05 12:00 | n/a | n/a | 6,1 ⇘ | 9,8 | n/a | n/a | n/a |
| Danmarkshavn | 04.05 10:00 | -5,5 | n/a | n/a | 19,0 | 1026 | 80 | n/a |
| Henrik Krøyer Holme | 04.05 09:00 | -7,9 | -20,5 | 20,0 ⇓ | 25,0 | 1028 | 71 | n/a |
| Station Nord | 04.05 09:00 | -9,8 | -18,0 | 6,0 ⇓ | 8,0 | 1031 | 86 | n/a |
| Kap Morris Jesup | 04.05 09:00 | -10,2 | -20,9 | 11,0 ⇒ | 13,0 | 1037 | 68 | n/a |
Advanced version ⤻
Data source - Operated by - Disclaimer ▼